Terminal Aerodrome Forecast
Issued by NWS Austin/San Antonio, TX

Home | Current Version | Previous Version | Text Only | Print | Product List | Glossary On
Versions: 1 2 3 4 5 6 7 8 9 10 11 12 13 14 15 16 17 18
320
FTUS44 KEWX 220539
TAFAUS
TAF
KAUS 220539Z 2206/2312 17009KT P6SM FEW200
     FM221100 18007KT P6SM SCT015 SCT250
     FM221500 18008KT P6SM FEW060
     FM230000 15009KT P6SM SCT250=

USA.gov is the U.S. government's official web portal to all federal, state and local government web resources and services.